Delta, OH

7:05 AM EDT on July 07, 2015 (GMT -0400)
Village of Swanton | | Change Station
CLOSE
Current Station
Personal Weather Station
Location: Swanton, OH
Elevation: 692 ft
Nearby Weather Stations

Elev 692 ft 41.60 °N, 83.89 °W | Updated 7 seconds ago

Mostly Cloudy
Mostly Cloudy
72.5 °F
Feels Like 75 °F
N
2.5
Wind Variable Wind from South
Gusts 2.5 mph

Today
High -- | Low -- °F
--% Chance of Precip.
Yesterday
High -- | Low -- °F
Precip. -- in
6:09 AM 9:12 PM
Waning Gibbous, 66% visible
Pressure 29.87 in
Visibility 6.0 miles
Clouds Clear
Heat Index 75 °F
Dew Point 63 °F
Humidity 71%
Rainfall 0.00 in
Snow Depth Not available.
UV 0 out of 12
Pollen 4.10 out of 12
Air Quality Not available.
Flu Activity Not available.
METAR KTOL 071052Z 20006KT 6SM BR CLR 23/21 A2988 RMK AO2 SLP114 T02280206

More Conditions Fewer Conditions

Pressure 29.87 in
Visibility 6.0 miles
Clouds Clear
Heat Index 75 °F
Dew Point 63 °F
Humidity 71%
Rainfall 0.00 in
Snow Depth Not available.
UV 0 out of 12
Pollen 4.10 out of 12
Air Quality Not available.
Flu Activity Not available.
METAR KTOL 071052Z 20006KT 6SM BR CLR 23/21 A2988 RMK AO2 SLP114 T02280206

More Conditions Fewer Conditions

10-Day Weather Forecast

×

Almanac

Astronomy

Jul. 07, 2015 Rise Set
Actual Time
Civil Twilight
Nautical Twilight
Astronomical Twilight
Moon
Length of Visible Light
Length of Day
Tomorrow will be .
, % of the Moon is Illuminated

Today's Extremes

State Highs State Lows

Community

WunderPhotos

Upload Photos

1,835,762 photos uploaded!

WunderBlogs® & News

Nearby

Air Quality

  Air Quality AQ Index Pollutant
Not available.

Snow Depth

Station Depth Elevation

Earthquake Activity

City Distance Mag. Time & Date
Minimum magnitude displayed is 2.5.

Coastal Water Temperatures

Place Temperature

Stations

Nearby Weather Stations

Station Location Temp. Windchill Dew Point Humidity Wind Precip. Elev Updated Type